Archival Weather

Rochelle Muni/Koritz Fld

Rochelle, Illinois (KRPJ)

Report from: Sunday, February 5, 2023 2:15 AM CST
Current time: Tuesday, February 27, 2024 3:06 AM CST

Current weather – Weather history – Daily summaries
Weather forecast

Temperature1.2°C (34.2°F)
Wind chill-4.2°C (24.4°F)
Dew point-1.0°C (30.2°F)
Winds 13 kts (6.7 m/s, 15 mph) South-Southwest (200°)
Visibility10 mi. (16.1 km)
Clouds Sky clear
Altimeter29.85 in.Hg (1011 mB)
Relative humidity85 %
Density altitude-1,513 ft. (-461 m)
Remarks Fully automated report
Automated weather observing station with precipitation discriminator
Lightning detection system not operating
Flight conditions Visual Meteorological Conditions
Raw dataKRPJ 050815Z AUTO 20013KT 10SM CLR 01/M01 A2985 RMK AO2 T00121010 TSNO
An error has occurred. This application may no longer respond until reloaded. Reload 🗙